Time;durP1;ratioP1;P1;durP2;ratioP2;P2;SDS_P1;SDS_P2;PMS_P1;PMS_P2;Temp;Humidity;BMP_temperature;BMP_pressure;BME280_temperature;BME280_humidity;BME280_pressure;Samples;Min_cycle;Max_cycle;Signal;HPM_P1;HPM_P2
2022/04/18 00:00:28;;;;;;;3.50;2.30;;;;;;;17.28;18.38;101672.06;5010352;28;20062;-83
2022/04/18 00:02:55;;;;;;;3.05;2.08;;;;;;;17.27;18.57;101665.72;5010415;28;20489;-83
2022/04/18 00:05:21;;;;;;;3.25;2.17;;;;;;;17.27;18.42;101671.19;5009651;28;20132;-84
2022/04/18 00:07:48;;;;;;;3.95;2.30;;;;;;;17.26;18.38;101665.84;5009874;28;20061;-83
2022/04/18 00:10:15;;;;;;;3.58;2.40;;;;;;;17.26;18.54;101665.84;5005706;28;20600;-83
2022/04/18 00:12:42;;;;;;;3.47;2.30;;;;;;;17.25;18.27;101667.69;5011003;28;20109;-83
2022/04/18 00:15:09;;;;;;;3.42;2.10;;;;;;;17.24;18.61;101663.22;5001577;28;20090;-84
2022/04/18 00:17:36;;;;;;;4.25;2.40;;;;;;;17.25;18.68;101653.97;5010118;28;20378;-83
2022/04/18 00:20:03;;;;;;;3.95;2.40;;;;;;;17.24;18.49;101656.84;5009143;28;20080;-83
2022/04/18 00:22:30;;;;;;;3.78;2.42;;;;;;;17.22;18.59;101653.34;5011279;28;20560;-84
2022/04/18 00:24:57;;;;;;;3.30;2.00;;;;;;;17.22;18.54;101653.34;5007969;28;20092;-84
2022/04/18 00:27:23;;;;;;;2.97;2.03;;;;;;;17.20;18.73;101655.38;5009589;28;20479;-84
2022/04/18 00:29:50;;;;;;;2.97;1.95;;;;;;;17.19;18.50;101649.00;5009439;28;20078;-84
2022/04/18 00:32:17;;;;;;;3.63;2.20;;;;;;;17.18;18.87;101650.00;5009124;28;20152;-83
2022/04/18 00:34:44;;;;;;;3.78;2.20;;;;;;;17.18;18.95;101649.13;5009014;28;20085;-84
2022/04/18 00:37:16;;;;;;;3.20;2.00;;;;;;;17.16;19.00;101648.38;4998026;28;20532;-83
2022/04/18 00:39:43;;;;;;;4.15;2.30;;;;;;;17.17;18.87;101648.25;5008989;28;20081;-83
2022/04/18 00:42:09;;;;;;;4.15;2.20;;;;;;;17.17;18.73;101653.75;5010606;28;20120;-83
2022/04/18 00:44:37;;;;;;;3.35;1.88;;;;;;;17.16;18.82;101654.72;5024177;28;20073;-82
2022/04/18 00:47:04;;;;;;;3.67;2.00;;;;;;;17.14;18.75;101643.00;5009352;28;20081;-84
2022/04/18 00:49:30;;;;;;;3.65;2.17;;;;;;;17.13;19.05;101644.00;5009426;28;20128;-84
2022/04/18 00:51:57;;;;;;;4.03;2.45;;;;;;;17.11;18.99;101637.78;5008938;28;20119;-84
2022/04/18 00:54:25;;;;;;;3.10;1.90;;;;;;;17.10;18.89;101642.41;5008538;28;20061;-83
2022/04/18 00:56:54;;;;;;;4.13;2.30;;;;;;;17.07;19.03;101642.63;5010725;28;20141;-84
2022/04/18 00:59:21;;;;;;;3.55;1.90;;;;;;;17.06;18.96;101638.13;5009871;28;20045;-83
2022/04/18 01:01:48;;;;;;;4.07;2.10;;;;;;;17.03;18.75;101640.28;5010082;28;20062;-84
2022/04/18 01:04:15;;;;;;;4.05;2.25;;;;;;;17.01;19.12;101640.41;5009187;28;20058;-83
2022/04/18 01:06:42;;;;;;;3.53;2.33;;;;;;;16.99;18.90;101647.00;5008080;28;20081;-83
2022/04/18 01:09:08;;;;;;;3.55;1.95;;;;;;;16.96;19.19;101633.56;5008426;28;20085;-83
2022/04/18 01:11:35;;;;;;;3.42;2.03;;;;;;;16.94;19.18;101628.19;5008739;28;20057;-83
2022/04/18 01:14:02;;;;;;;3.47;2.00;;;;;;;16.93;19.23;101629.19;4999848;28;20133;-83
2022/04/18 01:16:29;;;;;;;3.60;2.20;;;;;;;16.91;19.45;101628.41;5008134;28;20100;-83
2022/04/18 01:18:57;;;;;;;4.97;2.20;;;;;;;16.88;19.34;101623.22;5002834;28;20070;-83
2022/04/18 01:21:24;;;;;;;3.40;2.20;;;;;;;16.87;19.15;101629.69;5004073;28;20096;-83
2022/04/18 01:23:53;;;;;;;3.03;2.10;;;;;;;16.87;19.17;101621.47;5006453;28;20466;-84
2022/04/18 01:29:06;;;;;;;3.20;2.05;;;;;;;16.80;19.21;101624.81;5003045;28;20054;-82
2022/04/18 01:31:38;;;;;;;3.90;1.98;;;;;;;16.82;19.17;101626.41;4999962;28;20057;-83
2022/04/18 01:34:07;;;;;;;3.53;1.98;;;;;;;16.76;19.39;101629.66;5008256;28;20478;-83
2022/04/18 01:36:34;;;;;;;3.50;2.00;;;;;;;16.74;19.21;101621.56;5008702;28;20136;-84
2022/04/18 01:39:01;;;;;;;3.55;2.20;;;;;;;16.73;19.41;101624.41;5007557;28;20579;-83
2022/04/18 01:41:27;;;;;;;3.40;2.20;;;;;;;16.68;19.55;101623.94;5002744;28;20081;-84
2022/04/18 01:43:54;;;;;;;3.10;1.80;;;;;;;16.65;19.38;101629.66;5007809;28;20062;-83
2022/04/18 01:46:20;;;;;;;4.10;2.10;;;;;;;16.62;19.31;101629.91;5010617;28;20520;-83
2022/04/18 01:48:50;;;;;;;3.55;2.35;;;;;;;16.56;19.45;101633.97;5013110;28;20061;-83
2022/04/18 01:51:17;;;;;;;4.68;2.33;;;;;;;16.52;19.66;101626.13;5003227;28;20524;-83
2022/04/18 01:53:45;;;;;;;3.60;2.08;;;;;;;16.48;19.54;101619.13;5011498;28;20112;-83
2022/04/18 01:56:11;;;;;;;4.07;2.15;;;;;;;16.45;19.53;101624.84;5007214;28;20073;-83
2022/04/18 01:58:38;;;;;;;3.05;1.95;;;;;;;16.42;19.65;101625.09;5008811;28;20088;-83
2022/04/18 02:01:06;;;;;;;3.85;2.42;;;;;;;16.39;19.75;101617.97;5012603;28;20085;-83
2022/04/18 02:03:33;;;;;;;3.42;2.10;;;;;;;16.36;20.03;101610.88;5010187;28;20049;-84
2022/04/18 02:06:00;;;;;;;4.07;2.03;;;;;;;16.35;19.72;101609.13;5011864;28;20073;-83
2022/04/18 02:08:27;;;;;;;3.72;2.13;;;;;;;16.34;20.08;101612.00;5011063;28;20715;-84
2022/04/18 02:10:54;;;;;;;3.25;2.00;;;;;;;16.31;19.90;101610.34;5011805;28;20085;-83
2022/04/18 02:13:21;;;;;;;2.75;2.00;;;;;;;16.29;20.17;101606.03;5020894;28;20069;-83
2022/04/18 02:15:48;;;;;;;3.65;2.22;;;;;;;16.26;20.23;101604.38;5013970;28;20060;-83
2022/04/18 02:18:16;;;;;;;4.13;2.30;;;;;;;16.27;20.18;101610.72;5010896;28;20116;-83
2022/04/18 02:20:42;;;;;;;3.50;2.35;;;;;;;16.23;20.23;101601.88;5011440;28;20046;-83
2022/04/18 02:23:12;;;;;;;3.22;2.08;;;;;;;16.24;20.40;101606.38;5012116;28;20591;-83
2022/04/18 02:25:38;;;;;;;3.97;2.10;;;;;;;16.19;20.22;101597.63;5012148;28;20501;-83
2022/04/18 02:28:05;;;;;;;4.32;1.90;;;;;;;16.16;20.42;101595.13;5013812;28;20054;-83
2022/04/18 02:30:32;;;;;;;3.88;2.20;;;;;;;16.17;20.26;101593.25;5002871;28;20670;-83
2022/04/18 02:32:59;;;;;;;4.18;2.20;;;;;;;16.15;20.32;101593.38;5013497;28;20152;-82
2022/04/18 02:35:26;;;;;;;3.42;2.13;;;;;;;16.14;20.42;101588.88;5013014;28;20092;-82
2022/04/18 02:37:53;;;;;;;3.75;2.22;;;;;;;16.13;20.36;101584.44;5005096;28;20050;-82
2022/04/18 02:40:21;;;;;;;3.50;2.28;;;;;;;16.10;20.56;101581.03;5011336;28;20074;-83
2022/04/18 02:42:49;;;;;;;3.20;2.47;;;;;;;16.07;20.55;101578.53;5013443;28;20131;-83
2022/04/18 02:45:18;;;;;;;3.78;2.05;;;;;;;16.05;20.56;101573.22;5019646;28;20058;-83
2022/04/18 02:47:48;;;;;;;3.50;2.10;;;;;;;16.03;20.99;101572.44;5028485;28;20058;-83
2022/04/18 02:50:15;;;;;;;3.50;2.22;;;;;;;15.98;20.58;101577.38;5022247;28;20057;-83
2022/04/18 02:52:42;;;;;;;4.90;2.50;;;;;;;15.94;20.86;101574.03;5016137;28;20069;-83
2022/04/18 02:55:11;;;;;;;5.78;2.60;;;;;;;15.92;20.59;101578.75;5011173;28;20057;-83
2022/04/18 02:57:40;;;;;;;3.85;2.30;;;;;;;15.89;20.67;101570.78;5013229;28;20057;-83
2022/04/18 03:00:08;;;;;;;3.25;2.15;;;;;;;15.88;20.86;101563.56;5012996;28;20636;-83
2022/04/18 03:02:36;;;;;;;3.70;2.30;;;;;;;15.86;20.87;101564.66;5014941;28;20096;-83
2022/04/18 03:05:06;;;;;;;3.95;2.08;;;;;;;15.86;20.69;101559.19;5011318;28;20054;-82
2022/04/18 03:07:33;;;;;;;4.03;2.30;;;;;;;15.83;20.94;101560.28;5018970;28;20046;-83
2022/04/18 03:10:00;;;;;;;3.72;2.30;;;;;;;15.80;20.81;101556.94;5013945;28;20123;-83
2022/04/18 03:12:27;;;;;;;4.65;2.20;;;;;;;15.78;21.14;101562.53;5014468;28;20108;-83
2022/04/18 03:14:53;;;;;;;3.88;2.20;;;;;;;15.76;20.94;101558.16;5012803;28;20046;-83
2022/04/18 03:17:20;;;;;;;4.43;2.40;;;;;;;15.72;20.98;101560.28;5013104;28;20080;-83
2022/04/18 03:19:47;;;;;;;4.25;2.80;;;;;;;15.69;21.36;101552.28;5012724;28;20137;-83
2022/04/18 03:22:13;;;;;;;3.67;2.20;;;;;;;15.68;21.11;101553.28;5014367;28;20085;-83
2022/04/18 03:24:40;;;;;;;4.45;2.30;;;;;;;15.65;20.85;101550.75;5011528;28;20141;-82
2022/04/18 03:27:07;;;;;;;3.45;2.13;;;;;;;15.64;21.39;101556.38;5012640;28;20080;-82
2022/04/18 03:29:35;;;;;;;3.38;1.90;;;;;;;15.62;21.14;101555.63;5013225;28;20084;-82
2022/04/18 03:32:03;;;;;;;3.45;2.10;;;;;;;15.62;21.16;101558.34;5012796;28;20080;-83
2022/04/18 03:34:30;;;;;;;3.45;2.00;;;;;;;15.60;21.34;101556.59;5011345;28;20132;-82
2022/04/18 03:39:51;;;;;;;4.18;2.13;;;;;;;15.58;21.39;101553.09;5012314;28;20112;-82
2022/04/18 03:42:19;;;;;;;3.72;2.05;;;;;;;15.59;21.50;101553.97;5015815;28;20061;-82
2022/04/18 03:44:47;;;;;;;3.35;1.80;;;;;;;15.60;21.43;101561.19;5007320;28;20452;-82
2022/04/18 03:47:15;;;;;;;3.40;1.90;;;;;;;15.60;21.71;101559.34;5012319;28;20481;-83
2022/04/18 03:49:42;;;;;;;3.40;2.00;;;;;;;15.59;21.52;101552.13;5012288;28;20421;-82
2022/04/18 03:52:09;;;;;;;3.22;2.00;;;;;;;15.60;21.75;101550.25;5013512;28;20049;-82
2022/04/18 03:54:36;;;;;;;3.65;2.00;;;;;;;15.59;21.93;101552.13;5010532;28;20054;-82
2022/04/18 03:57:03;;;;;;;3.83;2.22;;;;;;;15.57;21.67;101545.00;5007117;28;20108;-82
2022/04/18 03:59:30;;;;;;;3.08;1.90;;;;;;;15.57;21.70;101545.00;5003444;28;20046;-82
2022/04/18 04:01:56;;;;;;;2.80;1.95;;;;;;;15.55;21.71;101538.78;5010098;28;20049;-82
2022/04/18 04:04:23;;;;;;;3.47;2.15;;;;;;;15.54;21.72;101545.25;5010436;28;20053;-82
2022/04/18 04:06:50;;;;;;;4.05;2.10;;;;;;;15.50;21.92;101544.56;5012789;28;20497;-82
2022/04/18 04:09:17;;;;;;;3.28;2.00;;;;;;;15.48;21.82;101541.06;5011287;28;20077;-82
2022/04/18 04:11:44;;;;;;;4.43;2.22;;;;;;;15.46;21.73;101544.94;5013213;28;20127;-82
2022/04/18 04:14:10;;;;;;;3.55;2.10;;;;;;;15.44;21.83;101553.25;5011761;28;20081;-82
2022/04/18 04:16:40;;;;;;;3.58;2.35;;;;;;;15.42;21.94;101547.03;5011007;28;20444;-83
2022/04/18 04:19:07;;;;;;;3.22;2.00;;;;;;;15.39;22.09;101547.28;5010692;28;20058;-83
2022/04/18 04:21:35;;;;;;;3.60;1.90;;;;;;;15.37;22.11;101542.91;5011848;28;20127;-82
2022/04/18 04:24:02;;;;;;;3.50;2.20;;;;;;;15.37;22.03;101542.91;5010694;28;20062;-82
2022/04/18 04:26:29;;;;;;;2.85;1.85;;;;;;;15.35;21.95;101544.88;5010648;28;20062;-83
2022/04/18 04:28:56;;;;;;;3.67;2.25;;;;;;;15.33;22.29;101541.38;5011995;28;20100;-83
2022/04/18 04:31:23;;;;;;;4.32;2.20;;;;;;;15.31;22.16;101544.25;5011738;28;20053;-82
2022/04/18 04:33:50;;;;;;;3.08;2.20;;;;;;;15.29;22.43;101543.47;5012070;28;20764;-83
2022/04/18 04:36:17;;;;;;;4.03;2.08;;;;;;;15.27;22.26;101542.72;5011102;28;20450;-82
2022/04/18 04:38:44;;;;;;;3.42;2.15;;;;;;;15.24;22.33;101543.81;5010229;28;20049;-82
2022/04/18 04:41:11;;;;;;;3.35;2.05;;;;;;;15.22;22.29;101550.41;5013014;28;20097;-83
2022/04/18 04:43:39;;;;;;;4.82;2.17;;;;;;;15.22;22.35;101553.13;5007590;28;20058;-83
2022/04/18 04:46:05;;;;;;;4.05;2.20;;;;;;;15.18;22.39;101547.00;5025610;28;20566;-83
2022/04/18 04:48:32;;;;;;;3.80;2.25;;;;;;;15.17;22.27;101552.59;5012041;28;20088;-83
2022/04/18 04:50:59;;;;;;;4.38;2.35;;;;;;;15.16;22.44;101557.19;5012675;28;20089;-83
2022/04/18 04:53:25;;;;;;;3.75;2.25;;;;;;;15.15;22.30;101557.34;5010494;28;20054;-82
2022/04/18 04:55:52;;;;;;;4.70;2.38;;;;;;;15.13;22.76;101556.56;5005713;28;20050;-83
2022/04/18 04:58:18;;;;;;;4.63;2.15;;;;;;;15.11;22.77;101564.88;5012083;28;20470;-83
2022/04/18 05:00:45;;;;;;;3.65;2.05;;;;;;;15.11;22.74;101561.28;5013209;28;20053;-83
2022/04/18 05:03:12;;;;;;;4.00;2.13;;;;;;;15.09;22.73;101563.25;5011107;28;20100;-83
2022/04/18 05:05:39;;;;;;;3.55;2.10;;;;;;;15.08;22.77;101564.22;5008784;28;20126;-83
2022/04/18 05:08:06;;;;;;;3.30;2.00;;;;;;;15.04;22.74;101562.72;5011144;28;20038;-83
2022/04/18 05:10:33;;;;;;;3.65;1.92;;;;;;;15.03;22.73;101555.50;5009659;28;20104;-84
2022/04/18 05:12:59;;;;;;;4.03;2.20;;;;;;;15.01;23.31;101560.19;5010997;28;20053;-83
2022/04/18 05:15:26;;;;;;;3.17;2.05;;;;;;;15.01;23.01;101562.94;5010483;28;20528;-83
2022/04/18 05:17:52;;;;;;;4.50;2.28;;;;;;;15.00;23.07;101562.06;5016125;28;20045;-84
2022/04/18 05:20:19;;;;;;;4.13;2.08;;;;;;;15.00;23.21;101567.53;5015272;28;20050;-84
2022/04/18 05:22:50;;;;;;;4.55;2.17;;;;;;;15.02;23.38;101573.75;5015241;28;20050;-84
2022/04/18 05:25:16;;;;;;;3.78;2.20;;;;;;;15.06;23.10;101571.69;5014926;28;20099;-84
2022/04/18 05:27:43;;;;;;;4.25;2.25;;;;;;;15.08;22.99;101566.94;5009637;28;20271;-85
2022/04/18 05:30:10;;;;;;;4.65;2.35;;;;;;;15.10;22.91;101575.94;5006609;28;20128;-85
2022/04/18 05:32:37;;;;;;;4.00;2.20;;;;;;;15.12;23.37;101569.38;5015274;28;20085;-85
2022/04/18 05:35:05;;;;;;;4.43;2.38;;;;;;;15.17;23.72;101575.34;5014617;28;20053;-84
2022/04/18 05:37:32;;;;;;;4.35;2.30;;;;;;;15.15;23.40;101577.31;5002719;28;20046;-84
2022/04/18 05:39:58;;;;;;;3.58;2.13;;;;;;;15.19;23.58;101575.25;5013870;28;20089;-85
2022/04/18 05:42:25;;;;;;;3.50;2.28;;;;;;;15.20;23.31;101574.25;5014459;28;20054;-85
2022/04/18 05:44:52;;;;;;;4.78;2.33;;;;;;;15.22;23.70;101575.91;5012965;28;20077;-85
2022/04/18 05:47:18;;;;;;;3.53;2.35;;;;;;;15.24;23.47;101578.50;5016297;28;20050;-84
2022/04/18 05:49:45;;;;;;;3.70;2.40;;;;;;;15.27;23.71;101578.28;5013426;28;20053;-85
2022/04/18 05:52:13;;;;;;;4.38;2.17;;;;;;;15.29;23.89;101584.53;5015024;28;20046;-85
2022/04/18 05:54:40;;;;;;;5.07;2.58;;;;;;;15.33;23.71;101586.03;5009216;28;20050;-85
2022/04/18 05:57:07;;;;;;;4.13;2.15;;;;;;;15.36;23.79;101585.81;5014920;28;20108;-84
2022/04/18 05:59:34;;;;;;;3.83;2.35;;;;;;;15.40;23.62;101590.03;5013855;28;20046;-84
2022/04/18 06:02:01;;;;;;;3.88;2.28;;;;;;;15.46;23.67;101592.34;5031016;28;20045;-84
2022/04/18 06:04:27;;;;;;;3.15;1.95;;;;;;;15.51;23.74;101592.84;5014771;28;20112;-84
2022/04/18 06:06:54;;;;;;;3.50;2.20;;;;;;;15.58;23.72;101590.53;5015064;28;20046;-84
2022/04/18 06:09:21;;;;;;;3.78;2.15;;;;;;;15.65;23.71;101599.19;5013176;28;20115;-84
2022/04/18 06:11:48;;;;;;;3.30;1.90;;;;;;;15.70;23.68;101594.22;5013758;28;20100;-84
2022/04/18 06:14:14;;;;;;;3.25;1.90;;;;;;;15.73;23.79;101589.38;5013470;28;20046;-84
2022/04/18 06:16:41;;;;;;;3.47;2.08;;;;;;;15.79;23.80;101586.19;5013426;28;20096;-83
2022/04/18 06:19:08;;;;;;;2.90;1.92;;;;;;;15.85;23.98;101588.44;5023367;28;20576;-84
2022/04/18 06:21:36;;;;;;;4.05;2.03;;;;;;;15.90;23.77;101593.53;5012960;28;20108;-85
2022/04/18 06:24:02;;;;;;;3.20;1.90;;;;;;;15.96;23.72;101584.88;5007078;28;20121;-84
2022/04/18 06:26:29;;;;;;;3.50;1.95;;;;;;;16.02;23.46;101594.47;5014926;28;20116;-85
2022/04/18 06:28:57;;;;;;;2.97;1.85;;;;;;;16.08;23.39;101599.47;5014298;28;20054;-84
2022/04/18 06:31:24;;;;;;;3.60;1.80;;;;;;;16.14;23.60;101585.31;5014834;28;20050;-85
2022/04/18 06:33:51;;;;;;;3.28;1.70;;;;;;;16.21;23.48;101594.78;5012915;28;20050;-85
2022/04/18 06:36:18;;;;;;;3.53;1.88;;;;;;;16.30;23.42;101597.69;5015229;28;20038;-85
2022/04/18 06:38:44;;;;;;;3.70;1.77;;;;;;;16.36;23.34;101594.44;5013054;28;20054;-84
2022/04/18 06:41:11;;;;;;;2.85;1.60;;;;;;;16.42;23.42;101593.06;5015034;28;20062;-84
2022/04/18 06:43:38;;;;;;;2.83;1.77;;;;;;;16.49;23.42;101587.97;5013145;28;20042;-87
2022/04/18 06:46:04;;;;;;;4.00;1.73;;;;;;;16.56;23.17;101590.09;5014152;28;20046;-86
2022/04/18 06:48:31;;;;;;;4.82;1.95;;;;;;;16.64;23.11;101592.25;5012807;28;20062;-85
2022/04/18 06:50:59;;;;;;;3.25;1.92;;;;;;;16.69;23.05;101593.66;5016587;28;20279;-85
2022/04/18 06:53:26;;;;;;;3.25;1.70;;;;;;;16.81;23.36;101588.16;5017628;28;20050;-84
2022/04/18 06:58:38;;;;;;;2.95;1.92;;;;;;;17.00;23.31;101589.28;5017859;28;20069;-87
2022/04/18 07:01:05;;;;;;;2.90;1.60;;;;;;;17.14;23.27;101585.38;5021661;28;20096;-87
2022/04/18 07:03:32;;;;;;;3.63;1.98;;;;;;;17.29;23.51;101589.63;5015697;28;20050;-85
2022/04/18 07:05:58;;;;;;;2.35;1.63;;;;;;;17.46;23.24;101596.41;5013249;28;20139;-85
2022/04/18 07:08:25;;;;;;;2.63;1.80;;;;;;;17.63;23.29;101595.91;5011829;28;20439;-87
2022/04/18 07:10:52;;;;;;;4.45;1.75;;;;;;;17.81;23.07;101587.97;5011633;28;20104;-88
2022/04/18 07:13:18;;;;;;;3.03;1.80;;;;;;;17.97;23.03;101591.16;5013229;28;20050;-87
2022/04/18 07:15:45;;;;;;;3.15;1.90;;;;;;;18.15;22.89;101597.81;5012404;28;20213;-87
2022/04/18 07:18:12;;;;;;;3.13;1.80;;;;;;;18.34;22.59;101596.19;5018588;28;20520;-88
2022/04/18 07:20:41;;;;;;;3.00;1.65;;;;;;;18.51;22.31;101604.72;4992746;28;20053;-88
2022/04/18 07:23:10;;;;;;;2.97;1.90;;;;;;;18.68;22.48;101597.75;5013647;28;20056;-89
2022/04/18 07:25:37;;;;;;;2.80;1.70;;;;;;;18.84;22.31;101600.88;5007207;28;20053;-82
2022/04/18 07:28:04;;;;;;;2.88;1.67;;;;;;;19.01;22.06;101596.59;5014616;28;20045;-85
2022/04/18 07:30:31;;;;;;;4.40;1.80;;;;;;;19.18;21.91;101595.06;5011388;28;20049;-80
2022/04/18 07:32:58;;;;;;;3.58;1.70;;;;;;;19.35;21.74;101599.91;5010628;28;20054;-80
2022/04/18 07:35:25;;;;;;;3.50;2.00;;;;;;;19.48;21.85;101597.78;5010042;28;20672;-76
2022/04/18 07:40:37;;;;;;;3.55;1.55;;;;;;;19.74;21.68;101596.22;5011713;28;20112;-78
2022/04/18 07:43:08;;;;;;;3.05;1.90;;;;;;;19.90;21.35;101600.28;5010615;28;20049;-81
2022/04/18 07:45:37;;;;;;;3.20;1.75;;;;;;;20.04;21.40;101600.72;5008771;28;20133;-77
2022/04/18 07:48:07;;;;;;;3.10;1.80;;;;;;;20.17;21.23;101605.06;5011094;28;20188;-77
2022/04/18 07:53:25;;;;;;;2.83;1.92;;;;;;;20.38;20.90;101598.41;5009648;28;20082;-86
2022/04/18 07:55:51;;;;;;;3.13;1.83;;;;;;;20.49;20.95;101595.47;5008337;28;20046;-86
2022/04/18 07:58:18;;;;;;;3.40;2.17;;;;;;;20.62;20.95;101588.75;5009767;28;20045;-86
2022/04/18 08:00:45;;;;;;;3.10;1.83;;;;;;;20.71;20.90;101585.09;5007928;28;20074;-86
2022/04/18 08:03:11;;;;;;;3.38;2.00;;;;;;;20.83;20.82;101592.19;5008303;28;20046;-84
2022/04/18 08:05:38;;;;;;;2.58;1.58;;;;;;;20.93;20.51;101586.59;5009056;28;20049;-84
2022/04/18 08:08:07;;;;;;;2.95;1.90;;;;;;;21.04;20.57;101584.53;5008710;28;20053;-83
2022/04/18 08:10:36;;;;;;;2.40;1.70;;;;;;;21.16;20.42;101579.69;5004866;28;20085;-83
2022/04/18 08:13:04;;;;;;;3.10;1.80;;;;;;;21.30;20.57;101572.81;5007494;28;20561;-86
2022/04/18 08:15:32;;;;;;;3.03;1.80;;;;;;;21.42;20.37;101575.19;5006287;28;20148;-84
2022/04/18 08:17:59;;;;;;;3.28;1.80;;;;;;;21.53;20.17;101574.97;5009803;28;20069;-86
2022/04/18 08:20:27;;;;;;;3.13;1.90;;;;;;;21.66;20.21;101576.50;5007469;28;20062;-86
2022/04/18 08:22:53;;;;;;;2.80;1.67;;;;;;;21.79;20.63;101582.50;5011384;28;20176;-85
2022/04/18 08:25:20;;;;;;;2.88;1.90;;;;;;;21.91;19.92;101572.91;5005148;28;20081;-83
2022/04/18 08:27:47;;;;;;;3.85;1.85;;;;;;;22.04;20.31;101564.28;5008872;28;20579;-86
2022/04/18 08:30:13;;;;;;;2.72;1.70;;;;;;;22.16;20.02;101566.59;5006674;28;20489;-84
2022/04/18 08:32:41;;;;;;;3.05;1.70;;;;;;;22.29;19.79;101566.22;5011076;28;20046;-85
2022/04/18 08:35:09;;;;;;;2.88;1.92;;;;;;;22.37;19.78;101561.59;5004002;28;20128;-86
2022/04/18 08:37:36;;;;;;;3.60;1.92;;;;;;;22.46;19.22;101559.75;5011443;28;20097;-86
2022/04/18 08:40:07;;;;;;;3.65;1.98;;;;;;;22.55;19.33;101561.56;5009751;28;20218;-86
2022/04/18 08:42:36;;;;;;;3.67;2.00;;;;;;;22.60;19.40;101550.84;5010224;28;20112;-86
2022/04/18 08:45:07;;;;;;;3.20;1.92;;;;;;;22.66;19.26;101557.63;5009092;28;20050;-86
2022/04/18 08:53:12;;;;;;;3.22;2.13;;;;;;;22.69;18.72;101557.31;5016338;28;20054;-85
2022/04/18 08:55:40;;;;;;;4.13;1.88;;;;;;;22.75;18.63;101551.13;5012773;28;20050;-85
2022/04/18 08:58:07;;;;;;;3.55;1.98;;;;;;;22.80;18.92;101557.06;5014441;28;20042;-86
2022/04/18 09:00:34;;;;;;;3.13;1.83;;;;;;;22.84;18.61;101550.16;5029086;28;20125;-85
2022/04/18 09:03:01;;;;;;;3.30;1.88;;;;;;;22.89;18.66;101542.25;5014172;28;20056;-85
2022/04/18 09:05:34;;;;;;;3.30;2.08;;;;;;;23.00;18.37;101541.91;5028217;28;20050;-85
2022/04/18 09:08:06;;;;;;;2.63;1.80;;;;;;;23.04;18.51;101539.69;5002432;28;20124;-85
2022/04/18 09:10:33;;;;;;;3.10;2.03;;;;;;;23.08;18.03;101543.84;5015035;28;20077;-84
2022/04/18 09:13:09;;;;;;;3.42;1.85;;;;;;;23.15;17.62;101543.00;5013294;28;20104;-84
2022/04/18 09:15:37;;;;;;;3.42;1.85;;;;;;;23.16;18.27;101532.81;5011463;28;20104;-84
2022/04/18 09:18:17;;;;;;;3.10;1.90;;;;;;;23.25;17.57;101536.47;5014444;28;20057;-83
2022/04/18 09:20:54;;;;;;;3.55;1.67;;;;;;;23.29;17.86;101530.44;5011777;28;20057;-84
2022/04/18 09:23:25;;;;;;;3.20;1.95;;;;;;;23.34;17.58;101529.91;5014410;28;20120;-83
2022/04/18 09:26:00;;;;;;;4.13;2.30;;;;;;;23.37;17.29;101527.69;5003554;28;20050;-83
2022/04/18 09:28:32;;;;;;;3.05;1.77;;;;;;;23.42;17.57;101532.72;5013348;28;20100;-83
2022/04/18 09:31:01;;;;;;;2.67;1.60;;;;;;;23.42;18.28;101530.81;5013361;28;20053;-83
2022/04/18 09:33:55;;;;;;;3.72;1.83;;;;;;;23.46;17.39;101523.03;5003155;28;20058;-83
2022/04/18 09:36:24;;;;;;;2.67;1.65;;;;;;;23.54;18.25;101523.09;5012984;28;20053;-84
2022/04/18 09:38:56;;;;;;;2.97;1.95;;;;;;;23.61;17.13;101514.94;5011633;28;20096;-84
2022/04/18 09:41:24;;;;;;;4.05;2.10;;;;;;;23.63;17.94;101512.88;5010878;28;20103;-83
2022/04/18 09:43:53;;;;;;;3.13;1.75;;;;;;;23.69;17.43;101517.72;5011187;28;20073;-84
2022/04/18 09:46:20;;;;;;;3.35;1.88;;;;;;;23.73;17.74;101514.44;5010573;28;20485;-83
2022/04/18 09:48:48;;;;;;;2.72;1.70;;;;;;;23.80;17.41;101503.53;5011613;28;20400;-84
2022/04/18 09:51:23;;;;;;;3.85;2.28;;;;;;;23.85;17.65;101501.97;5012314;28;20112;-83
2022/04/18 09:53:53;;;;;;;2.90;1.90;;;;;;;23.95;17.40;101500.94;5012019;28;20135;-83
2022/04/18 09:56:21;;;;;;;2.97;1.70;;;;;;;24.01;17.23;101505.78;5006504;28;20363;-83
2022/04/18 09:58:48;;;;;;;3.10;1.90;;;;;;;24.09;17.20;101500.22;5006301;28;20147;-83
2022/04/18 10:01:33;;;;;;;2.83;1.73;;;;;;;24.14;17.11;101495.88;5012339;28;20057;-83
2022/04/18 10:04:03;;;;;;;4.32;1.90;;;;;;;24.20;16.81;101492.44;5011063;28;20058;-83
2022/04/18 10:06:30;;;;;;;3.00;1.63;;;;;;;24.26;16.89;101490.88;5012835;28;20444;-83
2022/04/18 10:08:57;;;;;;;3.45;1.80;;;;;;;24.31;16.84;101482.88;5001178;28;20528;-83
2022/04/18 10:11:24;;;;;;;3.15;2.00;;;;;;;24.38;16.46;101480.28;5003270;28;20050;-83
2022/04/18 10:13:51;;;;;;;2.65;1.60;;;;;;;24.43;16.36;101472.28;5011719;28;20058;-83
2022/04/18 10:16:19;;;;;;;3.10;1.70;;;;;;;24.52;16.09;101482.31;5011220;28;20042;-83
2022/04/18 10:18:50;;;;;;;3.00;1.58;;;;;;;24.59;15.51;101475.00;5011150;28;20544;-83
2022/04/18 10:21:31;;;;;;;3.40;1.73;;;;;;;24.65;15.19;101475.13;5012715;28;20052;-83
2022/04/18 10:24:52;;;;;;;4.00;1.90;;;;;;;24.61;15.62;101473.78;5002392;28;20054;-82
2022/04/18 10:27:27;;;;;;;3.20;1.90;;;;;;;24.76;15.38;101462.78;5015261;28;20058;-83
2022/04/18 10:29:57;;;;;;;3.33;1.98;;;;;;;24.79;16.01;101458.78;5007736;28;20066;-82
2022/04/18 10:32:25;;;;;;;2.90;1.75;;;;;;;24.86;15.70;101460.66;5011690;28;20049;-83
2022/04/18 10:34:56;;;;;;;2.67;1.77;;;;;;;24.91;15.76;101461.00;5010704;28;20065;-83
2022/04/18 10:37:24;;;;;;;2.53;1.60;;;;;;;24.99;15.47;101458.19;5027566;28;20104;-83
2022/04/18 10:40:02;;;;;;;3.25;1.85;;;;;;;25.09;14.82;101454.31;5011540;28;20137;-83
2022/04/18 10:42:34;;;;;;;3.00;1.70;;;;;;;25.12;15.48;101451.19;5012681;28;20466;-83
2022/04/18 10:45:01;;;;;;;;;;;;;;;24.85;16.28;101445.03;5003136;28;20046;-82
2022/04/18 10:47:58;;;;;;;3.00;1.70;;;;;;;25.16;15.60;101435.84;5017841;28;19975;-82
2022/04/18 10:50:28;;;;;;;2.42;1.52;;;;;;;25.23;15.36;101442.41;5013064;28;20096;-82
2022/04/18 10:53:17;;;;;;;3.22;1.80;;;;;;;25.29;15.48;101439.75;5014459;28;20054;-82
2022/04/18 10:55:53;;;;;;;3.33;1.85;;;;;;;25.38;15.19;101437.78;5016905;28;20108;-82
2022/04/18 10:58:25;;;;;;;3.47;1.75;;;;;;;25.45;15.43;101426.81;5010550;28;20430;-82
2022/04/18 11:00:55;;;;;;;3.27;1.90;;;;;;;25.50;15.48;101438.22;5012755;28;20057;-82
2022/04/18 11:03:43;;;;;;;3.85;2.28;;;;;;;25.57;15.65;101433.66;5010642;28;20652;-82
2022/04/18 11:06:32;;;;;;;4.55;2.10;;;;;;;25.63;15.55;101433.78;5011446;28;20045;-82
2022/04/18 11:09:17;;;;;;;3.55;1.90;;;;;;;25.75;15.38;101429.53;5003373;28;20054;-82
2022/04/18 11:12:01;;;;;;;3.70;2.05;;;;;;;25.83;15.05;101430.50;5012081;28;20289;-82
2022/04/18 11:14:30;;;;;;;3.83;1.80;;;;;;;25.88;15.59;101416.88;5008384;28;20042;-82
2022/04/18 11:16:59;;;;;;;3.55;1.92;;;;;;;25.96;15.29;101422.38;5011216;28;20046;-82
2022/04/18 11:19:28;;;;;;;2.78;1.70;;;;;;;26.01;15.69;101412.41;5011041;28;20406;-81
2022/04/18 11:21:55;;;;;;;2.95;1.63;;;;;;;26.06;15.19;101417.41;5010430;28;20545;-82
2022/04/18 11:24:51;;;;;;;3.20;1.90;;;;;;;26.15;15.43;101416.25;5009155;28;20493;-82
2022/04/18 11:27:27;;;;;;;2.97;1.55;;;;;;;26.21;14.97;101411.84;5009611;28;20045;-82
2022/04/18 11:29:59;;;;;;;3.75;1.85;;;;;;;26.26;15.02;101409.41;5009182;28;20085;-82
2022/04/18 11:32:46;;;;;;;3.70;1.63;;;;;;;26.27;15.37;101409.22;5011395;28;20551;-82
2022/04/18 11:35:14;;;;;;;3.58;1.88;;;;;;;26.34;15.29;101412.97;4995646;28;20501;-82
2022/04/18 11:37:43;;;;;;;3.08;1.90;;;;;;;26.41;14.90;101418.63;5010839;28;20502;-82
2022/04/18 11:40:11;;;;;;;3.95;2.10;;;;;;;26.47;14.87;101406.69;5008052;28;20105;-82
2022/04/18 11:42:40;;;;;;;3.58;1.83;;;;;;;26.51;15.10;101408.91;5010377;28;20050;-82
2022/04/18 11:45:09;;;;;;;3.17;1.75;;;;;;;26.56;14.86;101399.09;5007242;28;20046;-82
2022/04/18 11:47:47;;;;;;;3.85;1.77;;;;;;;26.60;14.51;101404.13;5012178;28;20112;-81
2022/04/18 11:50:22;;;;;;;2.42;1.58;;;;;;;26.60;14.26;101392.97;5014837;28;20062;-81